Roaring Springs, TX (79256)

4:35 PM CST on February 09, 2016 (GMT -0600)
Childress Municipal | | Change Station
CLOSE
Current Station
Airport
Location: Childress,
Elevation: 1952 ft
Nearby Weather Stations

Elev 1952 ft 34.43 °N, 100.28 °W | Updated 42 minutes ago

Clear
Clear
70 °F
Feels Like 70 °F
N
13
Wind Variable Wind from NNW
Gusts 25 mph

Today
High -- | Low -- °F
--% Chance of Precip.
Yesterday
High -- | Low -- °F
Precip. -- in
Pressure 30.20 in
Visibility 10.0 miles
Clouds Scattered Clouds 10000 ft
Dew Point 23 °F
Humidity 17%
Rainfall 0.00 in
Snow Depth Not available.
7:34 AM 6:21 PM
New Moon, 2% visible
METAR KCDS 092153Z AUTO 34011G22KT 10SM SCT100 21/M05 A3021 RMK AO2 PK WND 31028/2059 SLP225 T02111050
Pressure 30.20 in
Visibility 10.0 miles
Clouds Scattered Clouds 10000 ft
Dew Point 23 °F
Humidity 17%
Rainfall 0.00 in
Snow Depth Not available.
7:34 AM 6:21 PM
New Moon, 2% visible
METAR KCDS 092153Z AUTO 34011G22KT 10SM SCT100 21/M05 A3021 RMK AO2 PK WND 31028/2059 SLP225 T02111050

10-Day Weather Forecast

Almanac

Astronomy

Feb. 09, 2016 Rise Set
Actual Time
Civil Twilight
Nautical Twilight
Astronomical Twilight
Moon
Length of Visible Light
Length of Day
Tomorrow will be .
, % of the Moon is Illuminated

Today's Extremes

State Highs State Lows

Community

WunderPhotos

Upload Photos

1,891,725 photos uploaded!

WunderBlog® & News

Nearby

Air Quality

  Air Quality AQ Index Pollutant
Not available.

Snow Depth

Station Depth Elevation

Earthquake Activity

City Distance Mag. Time & Date
Minimum magnitude displayed is 2.5.

Coastal Water Temperatures

Place Temperature

Stations

Nearby Weather Stations

Station Location Temp. Windchill Dew Point Humidity Wind Precip. Elev Updated Type
                   

Watches & Warnings

There are currently no watches in effect.